Harvey, Arkansas
Current Conditions -  °F | °C
As of 8:53 PM on Sunday 21 Dec 2014 (Local Time) from KMWT Reporting Station
Overcast Overcast  
Wind Chill: 51°   Ceiling: 3200
Heat Index: 51°   Visibility: 10mi
Dew Point: 41°   Wind: 10mph
Humidity: 68%   Direction: 150°SSE
Pressure: 29.84"   Gusts: NA
Location:  34.85°N, 93.79°W
Report Text: KMWT 220253Z AUTO 15009KT 10SM OVC032 11/05 A2984 RMK AO2 SLP110 T01060050 58016
Loading
Personal Weather Stations






























Interactive Weather Map New forecast layout! Learn more

10-Day Weather Forecast

Advertisements
Track Severe Weather on mobile